CheckWX is a tool to help pilots better visualize weather data.  It is not intended as a substitute for an official pre-flight weather briefing.

15:17:10 UTC

ENSG METAR
Sogndal Airport
Sogndal, Norway
Current

27 mins ago

ENSG 261450Z 22008KT 140V280 9999 SCT055 12/M01 Q1000 RMK WIND 3806FT 27014KT
Observed
May-26 @ 14:50 UTC
Wind
  • 220° at 8 KTS
Visibility
10,000+ meters
Flight Rules
VFR
Cloud Levels
  • Scattered at 5,500' AGL
Temperature
12°C / 54°F
Dewpoint
-1°C / 30°F
Humidity
41%
Altimeter
29.53" Hg
Pressure
999.92 hPa
Previous

57 mins ago

ENSG 261420Z 23009KT 9999 SCT055 10/M01 Q1000 RMK WIND 3806FT 27009KT
Observed
May-26 @ 14:20 UTC
Wind
  • 230° at 9 KTS
Visibility
10,000+ meters
Flight Rules
VFR
Cloud Levels
  • Scattered at 5,500' AGL
Temperature
10°C / 50°F
Dewpoint
-1°C / 30°F
Humidity
47%
Altimeter
29.53" Hg
Pressure
999.92 hPa
Previous

1 hour ago

ENSG 261350Z 22008KT 120V260 9999 SCT055 10/M01 Q1000 RMK WIND 3806FT 29009KT
Observed
May-26 @ 13:50 UTC
Wind
  • 220° at 8 KTS
Visibility
10,000+ meters
Flight Rules
VFR
Cloud Levels
  • Scattered at 5,500' AGL
Temperature
10°C / 50°F
Dewpoint
-1°C / 30°F
Humidity
47%
Altimeter
29.53" Hg
Pressure
999.92 hPa